Terminal Aerodrome Forecast
Issued by NWS Wilmington, OH

Home | Current Version | Previous Version | Text Only | Print | Product List | Glossary On
Versions: 1 2 3 4 5 6 7 8 9 10 11 12 13 14 15
157
FTUS41 KILN 140538
TAFILN
TAF
KILN 140538Z 1406/1506 00000KT P6SM BKN200
     FM141500 13008KT P6SM FEW015 OVC080
     FM142000 12010KT 4SM -SN SCT015 OVC035
     FM142300 12010KT 1SM -SN BKN015 OVC035
     FM150200 13009KT 4SM -SN BKN008 OVC015=

USA.gov is the U.S. government's official web portal to all federal, state and local government web resources and services.